FMNN Airport Information

Runway Information
Runway 05 Length 7185 ft width 148 ft
Elevation 37 ft Threshold ft Heading 43
Runway 23 Length 7185 ft Width 148 ft
Elevation 16 ft Threshold ft Heading 223
Airport Frequencies
Type A/G Name A/G VOICE Frequency 548.4 MHZ
Type TWR Name TWR Frequency 118.7 MHZ
Airport Navaids
Type VOR-DME Name Fascene Frequency 117500 KHZ
Type NDB Name Fascene Frequency 381 KHZ
Airport Weather Information & NOTAM
ADDS - METARS form results

(1834 UTC 29 September 2022)
Data provider http://aviationweather.gov/metar/data/
 
Forecast for: FMNN (NOSY BE/FASCENE , MG)
Text: TAF FMNN 291700Z 2918/3018 VRB05KT 9999 SCT020
Forecast period: 1800 UTC 29 September 2022 to 1800 UTC 30 September 2022
Forecast type: FROM: standard forecast or significant change
Winds: variable direction winds at 6 MPH (5 knots; 2.6 m/s)
Visibility: 6 or more miles (10+ km)
Ceiling: at least 12,000 feet AGL
Clouds: scattered clouds at 2000 feet AGL
Weather: no significant weather forecast for this period
Text: PROB30
Forecast period: 1800 UTC 29 September 2022 to 0000 UTC 30 September 2022
Forecast type: TEMPORARY: The following changes expected for less than half the time period
Visibility: 2.80 miles (4.51 km)
Ceiling: unknown
Clouds: missing
Weather: SHRA  (rain showers)